Time;durP1;ratioP1;P1;durP2;ratioP2;P2;SDS_P1;SDS_P2;PMS_P1;PMS_P2;Temp;Humidity;BMP_temperature;BMP_pressure;BME280_temperature;BME280_humidity;BME280_pressure;Samples;Min_cycle;Max_cycle;Signal;HPM_P1;HPM_P2
2023/09/13 00:00:54;;;;;;;39.92;28.25;;;16.00;76.40;;;;;;5052526;28;20049;-70
2023/09/13 00:03:22;;;;;;;37.83;26.38;;;16.20;76.10;;;;;;5052291;28;20068;-69
2023/09/13 00:05:49;;;;;;;31.33;24.30;;;16.20;74.70;;;;;;5052549;28;20067;-70
2023/09/13 00:08:16;;;;;;;35.35;23.95;;;16.30;74.20;;;;;;5035107;28;20028;-69
2023/09/13 00:10:44;;;;;;;32.67;23.52;;;16.40;73.80;;;;;;5052743;28;20021;-70
2023/09/13 00:13:13;;;;;;;32.97;23.67;;;16.40;72.60;;;;;;5051864;28;20051;-71
2023/09/13 00:15:44;;;;;;;28.67;21.58;;;16.50;72.00;;;;;;5051284;28;20020;-70
2023/09/13 00:18:16;;;;;;;33.83;22.13;;;16.60;71.00;;;;;;5050997;28;20032;-70
2023/09/13 00:20:43;;;;;;;33.13;22.38;;;16.70;70.70;;;;;;5052396;28;20039;-70
2023/09/13 00:23:11;;;;;;;30.77;21.85;;;16.70;70.60;;;;;;5052156;28;20021;-70
2023/09/13 00:25:38;;;;;;;31.75;21.60;;;16.80;70.50;;;;;;5052232;28;20084;-70
2023/09/13 00:28:05;;;;;;;32.20;21.42;;;16.90;70.20;;;;;;5052184;28;20028;-70
2023/09/13 00:30:33;;;;;;;31.42;20.88;;;17.00;69.60;;;;;;5052033;28;20028;-70
2023/09/13 00:33:00;;;;;;;26.73;19.35;;;17.00;67.80;;;;;;5051086;28;20041;-70
2023/09/13 00:35:28;;;;;;;23.95;18.80;;;17.00;67.90;;;;;;5052184;28;20016;-70
2023/09/13 00:37:55;;;;;;;21.73;15.30;;;17.10;67.10;;;;;;5052060;28;20029;-70
2023/09/13 00:40:22;;;;;;;19.50;13.85;;;17.10;66.60;;;;;;5050572;28;20028;-70
2023/09/13 00:42:49;;;;;;;17.05;12.70;;;17.20;64.80;;;;;;5051726;28;20057;-70
2023/09/13 00:45:16;;;;;;;20.13;13.90;;;17.30;63.80;;;;;;5052222;28;20092;-69
2023/09/13 00:47:44;;;;;;;20.52;14.50;;;17.30;64.00;;;;;;5051992;28;20404;-70
2023/09/13 00:50:12;;;;;;;18.52;13.30;;;17.30;63.30;;;;;;5050659;28;20017;-70
2023/09/13 00:52:39;;;;;;;16.63;13.20;;;17.40;62.70;;;;;;5034269;28;20151;-70
2023/09/13 00:55:07;;;;;;;13.23;10.63;;;17.50;61.80;;;;;;5034413;28;20060;-70
2023/09/13 00:57:35;;;;;;;19.25;10.20;;;17.50;61.10;;;;;;5050736;28;20044;-69
2023/09/13 01:00:10;;;;;;;13.15;10.20;;;17.60;60.90;;;;;;5051494;28;20029;-70
2023/09/13 01:02:39;;;;;;;14.55;10.05;;;17.70;60.20;;;;;;5051951;28;20471;-70
2023/09/13 01:05:11;;;;;;;16.80;9.90;;;17.70;59.90;;;;;;5050385;28;20090;-70
2023/09/13 01:07:42;;;;;;;19.90;10.40;;;17.70;59.90;;;;;;5050601;28;20025;-70
2023/09/13 01:10:10;;;;;;;12.00;9.60;;;17.80;60.70;;;;;;5051528;28;20032;-71
2023/09/13 01:12:38;;;;;;;13.07;9.18;;;17.80;59.80;;;;;;5051706;28;20110;-70
2023/09/13 01:15:08;;;;;;;12.80;8.52;;;17.80;58.90;;;;;;5051748;28;20103;-70
2023/09/13 01:18:21;;;;;;;13.85;8.85;;;17.80;58.40;;;;;;5050813;28;20463;-70
2023/09/13 01:21:06;;;;;;;12.13;8.35;;;17.90;58.70;;;;;;5051786;28;20403;-71
2023/09/13 01:24:00;;;;;;;11.98;7.72;;;17.90;58.40;;;;;;5051510;28;20116;-71
2023/09/13 01:26:46;;;;;;;11.40;7.70;;;18.00;58.60;;;;;;5054815;28;20104;-70
2023/09/13 01:29:16;;;;;;;11.90;8.85;;;18.10;57.20;;;;;;5055321;28;20024;-70
2023/09/13 01:31:44;;;;;;;12.23;8.23;;;18.10;56.80;;;;;;5054169;28;20070;-70
2023/09/13 01:34:11;;;;;;;11.80;8.60;;;18.20;57.70;;;;;;5055429;28;20018;-70
2023/09/13 01:36:38;;;;;;;81.75;15.23;;;18.20;57.40;;;;;;5055211;28;20044;-70
2023/09/13 01:39:06;;;;;;;54.38;12.40;;;18.20;57.10;;;;;;5054912;28;20017;-70
2023/09/13 01:41:40;;;;;;;17.30;8.40;;;18.30;56.50;;;;;;5053726;28;20033;-70
2023/09/13 01:44:07;;;;;;;13.13;8.43;;;18.30;57.20;;;;;;5053845;28;20060;-70
2023/09/13 01:46:35;;;;;;;14.85;8.63;;;18.40;56.80;;;;;;5053638;28;20025;-70
2023/09/13 01:49:03;;;;;;;10.75;8.68;;;18.40;55.80;;;;;;5053830;28;20013;-70
2023/09/13 01:51:30;;;;;;;14.73;9.40;;;18.40;55.90;;;;;;5053967;28;20017;-70
2023/09/13 01:53:57;;;;;;;13.48;8.52;;;18.40;54.40;;;;;;5054059;28;20071;-71
2023/09/13 01:56:24;;;;;;;14.10;9.00;;;18.50;55.30;;;;;;5055166;28;20082;-71
2023/09/13 01:58:52;;;;;;;12.15;8.30;;;18.60;55.60;;;;;;5053761;28;20040;-71
2023/09/13 02:01:19;;;;;;;17.75;7.97;;;18.60;55.60;;;;;;5055193;28;20040;-71
2023/09/13 02:03:46;;;;;;;12.70;7.78;;;18.60;55.50;;;;;;5054664;28;20045;-71
2023/09/13 02:06:14;;;;;;;14.00;7.28;;;18.60;55.00;;;;;;5054754;28;20102;-71
2023/09/13 02:08:45;;;;;;;10.82;7.15;;;18.60;53.30;;;;;;5054698;28;20060;-70
2023/09/13 02:11:12;;;;;;;18.02;7.72;;;18.70;53.60;;;;;;5053604;28;20025;-70
2023/09/13 02:13:39;;;;;;;8.60;6.47;;;18.70;53.40;;;;;;5054657;28;20035;-70
2023/09/13 02:16:07;;;;;;;10.55;7.03;;;18.70;53.00;;;;;;5054679;28;20067;-70
2023/09/13 02:18:35;;;;;;;8.70;6.53;;;18.70;53.10;;;;;;5054576;28;20025;-70
2023/09/13 02:21:03;;;;;;;17.83;6.75;;;18.80;52.80;;;;;;5054508;28;20450;-70
2023/09/13 02:23:30;;;;;;;8.90;6.28;;;18.90;52.40;;;;;;5054250;28;20537;-71
2023/09/13 02:25:58;;;;;;;14.65;6.47;;;18.80;51.90;;;;;;5064984;22;20035;-78
2023/09/13 02:28:25;;;;;;;9.50;6.20;;;18.80;51.50;;;;;;5052873;28;20353;-77
2023/09/13 02:30:52;;;;;;;14.13;6.50;;;18.90;51.50;;;;;;5054446;28;20032;-78
2023/09/13 02:33:20;;;;;;;9.85;6.45;;;18.90;52.20;;;;;;5053205;28;20033;-77
2023/09/13 02:35:47;;;;;;;10.20;6.55;;;18.90;51.90;;;;;;5053701;28;20095;-77
2023/09/13 02:38:14;;;;;;;11.40;6.95;;;18.90;51.50;;;;;;5052886;28;20076;-77
2023/09/13 02:40:42;;;;;;;58.83;10.52;;;18.90;51.20;;;;;;5036425;28;20025;-77
2023/09/13 02:43:09;;;;;;;21.05;7.28;;;19.00;51.40;;;;;;5054001;28;20147;-78
2023/09/13 02:45:36;;;;;;;9.40;6.38;;;19.10;51.10;;;;;;5053910;28;20036;-77
2023/09/13 02:48:04;;;;;;;13.25;6.85;;;19.10;49.90;;;;;;5052487;28;20025;-77
2023/09/13 02:50:31;;;;;;;17.70;8.13;;;19.20;50.10;;;;;;5052454;28;20487;-77
2023/09/13 02:52:59;;;;;;;48.58;11.23;;;19.20;50.30;;;;;;5052718;28;20025;-78
2023/09/13 02:55:26;;;;;;;25.73;10.88;;;19.30;55.90;;;;;;5052498;28;20087;-77
2023/09/13 02:57:56;;;;;;;19.25;11.00;;;19.50;56.90;;;;;;5053873;28;20031;-78
2023/09/13 03:00:23;;;;;;;;;;;19.50;58.50;;;;;;5053947;28;20037;-77
2023/09/13 03:02:50;;;;;;;22.88;10.07;;;19.50;59.70;;;;;;5053559;28;19974;-78
2023/09/13 03:05:18;;;;;;;25.20;10.60;;;19.50;61.80;;;;;;5053518;28;20482;-78
2023/09/13 03:07:45;;;;;;;21.75;12.38;;;19.40;63.70;;;;;;5052375;28;20594;-77
2023/09/13 03:10:12;;;;;;;22.65;13.90;;;19.40;59.80;;;;;;5053179;28;20013;-78
2023/09/13 03:12:40;;;;;;;18.27;12.43;;;19.30;58.30;;;;;;5035876;28;20104;-78
2023/09/13 03:15:07;;;;;;;17.75;12.18;;;19.30;57.20;;;;;;5052137;28;20021;-78
2023/09/13 03:17:34;;;;;;;16.10;11.85;;;19.40;56.70;;;;;;5053336;28;20031;-78
2023/09/13 03:20:02;;;;;;;20.60;12.43;;;19.40;55.90;;;;;;5053086;28;20028;-77
2023/09/13 03:22:29;;;;;;;19.05;11.75;;;19.40;56.10;;;;;;5051992;28;20100;-78
2023/09/13 03:24:56;;;;;;;20.85;12.05;;;19.40;59.00;;;;;;5053504;28;20096;-78
2023/09/13 03:27:23;;;;;;;18.73;11.80;;;19.40;58.90;;;;;;5051619;28;20076;-77
2023/09/13 03:29:51;;;;;;;22.98;12.05;;;19.40;56.20;;;;;;5053152;28;20430;-77
2023/09/13 03:32:18;;;;;;;22.80;12.48;;;19.50;57.90;;;;;;5052831;28;20017;-77
2023/09/13 03:34:45;;;;;;;20.40;11.82;;;19.40;57.10;;;;;;5052717;28;20441;-77
2023/09/13 03:37:12;;;;;;;16.33;10.55;;;19.30;57.70;;;;;;5052830;28;20027;-78
2023/09/13 03:39:39;;;;;;;18.90;10.13;;;19.40;62.00;;;;;;5052747;28;20103;-78
2023/09/13 03:42:07;;;;;;;15.70;10.18;;;19.30;63.20;;;;;;5053199;28;20160;-77
2023/09/13 03:44:34;;;;;;;20.52;9.55;;;19.30;63.50;;;;;;5051545;28;20065;-77
2023/09/13 03:47:01;;;;;;;19.85;10.80;;;19.20;63.10;;;;;;5052505;28;20021;-77
2023/09/13 03:49:28;;;;;;;18.00;10.45;;;19.30;62.20;;;;;;5034722;28;20025;-77
2023/09/13 03:51:56;;;;;;;20.05;10.85;;;19.30;60.90;;;;;;5035240;28;20032;-77
2023/09/13 03:54:23;;;;;;;16.45;10.73;;;19.30;62.00;;;;;;5051447;28;20081;-77
2023/09/13 03:56:50;;;;;;;20.25;10.77;;;19.30;61.50;;;;;;5052668;28;20466;-77
2023/09/13 03:59:17;;;;;;;17.00;10.27;;;19.30;61.10;;;;;;5052502;28;20087;-77
2023/09/13 04:01:45;;;;;;;15.57;9.77;;;19.30;60.90;;;;;;5052459;28;20051;-77
2023/09/13 04:04:12;;;;;;;19.10;11.40;;;19.30;61.40;;;;;;5052599;28;20029;-77
2023/09/13 04:06:39;;;;;;;22.00;11.18;;;19.30;60.20;;;;;;5051207;28;20013;-78
2023/09/13 04:09:06;;;;;;;15.98;8.48;;;19.30;58.30;;;;;;5034405;28;20484;-77
2023/09/13 04:11:34;;;;;;;16.58;8.65;;;19.40;55.00;;;;;;5051101;28;20021;-77
2023/09/13 04:14:01;;;;;;;16.67;8.65;;;19.40;55.60;;;;;;5051144;28;20024;-77
2023/09/13 04:16:28;;;;;;;17.13;8.60;;;19.40;56.20;;;;;;5034692;28;20490;-77
2023/09/13 04:18:55;;;;;;;9.82;6.47;;;19.40;56.30;;;;;;5052529;28;20090;-77
2023/09/13 04:21:23;;;;;;;47.05;10.68;;;19.40;53.10;;;;;;5052309;28;20057;-77
2023/09/13 04:23:50;;;;;;;22.20;8.63;;;19.40;56.00;;;;;;5034435;28;20487;-77
2023/09/13 04:26:21;;;;;;;18.73;7.68;;;19.40;57.20;;;;;;5034553;28;20052;-77
2023/09/13 04:28:48;;;;;;;19.65;9.35;;;19.30;57.70;;;;;;5052083;28;20021;-77
2023/09/13 04:31:15;;;;;;;33.40;10.40;;;19.30;59.70;;;;;;5051800;28;20440;-78
2023/09/13 04:33:53;;;;;;;26.42;10.43;;;19.40;60.50;;;;;;5052042;28;20112;-77
2023/09/13 04:36:20;;;;;;;36.83;11.10;;;19.30;60.50;;;;;;5035249;28;20052;-77
2023/09/13 04:38:48;;;;;;;47.65;12.52;;;19.30;60.70;;;;;;5050819;28;20531;-77
2023/09/13 04:41:16;;;;;;;49.15;11.07;;;19.30;60.30;;;;;;5051982;28;20024;-77
2023/09/13 04:43:43;;;;;;;79.38;15.82;;;19.30;60.60;;;;;;5034323;28;20121;-77
2023/09/13 04:46:10;;;;;;;66.95;15.95;;;19.30;61.20;;;;;;5052047;28;20079;-77
2023/09/13 04:48:38;;;;;;;49.83;12.07;;;19.30;61.00;;;;;;5051696;28;20021;-77
2023/09/13 04:51:05;;;;;;;19.20;8.70;;;19.30;61.10;;;;;;5051909;28;20028;-78
2023/09/13 04:53:33;;;;;;;22.10;7.80;;;19.30;60.70;;;;;;5034369;28;20025;-78
2023/09/13 04:56:01;;;;;;;15.75;7.00;;;19.30;60.10;;;;;;5050698;28;20079;-78
2023/09/13 04:58:29;;;;;;;62.95;10.40;;;19.30;59.90;;;;;;5050737;28;20059;-78
2023/09/13 05:00:56;;;;;;;56.85;9.93;;;19.30;60.00;;;;;;5054665;28;20017;-78
2023/09/13 05:03:23;;;;;;;29.38;7.35;;;19.30;60.50;;;;;;5055717;28;20029;-78
2023/09/13 05:05:50;;;;;;;21.10;6.97;;;19.30;60.60;;;;;;5038350;28;20017;-78
2023/09/13 05:08:18;;;;;;;21.48;6.80;;;19.30;61.10;;;;;;5054413;28;20025;-78
2023/09/13 05:10:45;;;;;;;29.00;7.10;;;19.30;60.80;;;;;;5054315;28;20025;-78
2023/09/13 05:13:13;;;;;;;19.05;6.20;;;19.20;60.70;;;;;;5054353;28;20336;-78
2023/09/13 05:15:44;;;;;;;17.88;6.18;;;19.20;61.30;;;;;;5054477;28;20444;-78
2023/09/13 05:18:12;;;;;;;16.73;5.65;;;19.20;61.30;;;;;;5055864;28;20025;-78
2023/09/13 05:20:39;;;;;;;15.13;5.80;;;19.20;61.50;;;;;;5054261;28;20029;-78
2023/09/13 05:23:06;;;;;;;8.98;4.43;;;19.20;62.10;;;;;;5054206;28;20108;-77
2023/09/13 05:25:33;;;;;;;10.05;3.75;;;19.20;57.20;;;;;;5054916;28;20024;-78
2023/09/13 05:28:02;;;;;;;4.90;3.25;;;19.20;53.30;;;;;;5054866;28;20049;-79
2023/09/13 05:30:33;;;;;;;4.68;3.10;;;19.30;52.60;;;;;;5055071;28;20056;-77
2023/09/13 05:33:01;;;;;;;4.93;3.40;;;19.30;52.00;;;;;;5037680;28;20067;-77
2023/09/13 05:35:31;;;;;;;5.20;3.40;;;19.40;51.40;;;;;;5053791;28;20017;-77
2023/09/13 05:37:58;;;;;;;;;;;19.30;52.20;;;;;;5053980;28;20147;-77
2023/09/13 05:40:28;;;;;;;9.60;4.10;;;19.30;51.90;;;;;;5052213;28;19999;-83
2023/09/13 05:42:55;;;;;;;;;;;19.40;53.00;;;;;;5051061;28;20037;-81
2023/09/13 05:45:26;;;;;;;6.80;3.42;;;19.40;52.50;;;;;;5051217;28;19932;-81
2023/09/13 05:47:53;;;;;;;5.50;3.53;;;19.40;52.80;;;;;;5035013;28;20501;-86
2023/09/13 05:50:20;;;;;;;5.53;3.40;;;19.30;52.70;;;;;;5052192;28;20067;-84
2023/09/13 05:52:48;;;;;;;9.77;3.30;;;19.30;52.60;;;;;;5050543;28;20028;-77
2023/09/13 05:55:15;;;;;;;5.93;3.22;;;19.30;52.70;;;;;;5051647;28;20025;-78
2023/09/13 05:57:42;;;;;;;8.70;3.92;;;19.30;53.00;;;;;;5050321;28;20098;-78
2023/09/13 06:00:10;;;;;;;5.88;3.42;;;19.20;53.60;;;;;;5050113;28;20043;-78
2023/09/13 06:02:37;;;;;;;7.28;3.88;;;19.30;53.20;;;;;;5051654;28;20483;-77
2023/09/13 06:05:06;;;;;;;5.53;3.47;;;19.30;51.10;;;;;;5050368;28;20501;-77
2023/09/13 06:07:33;;;;;;;9.80;3.60;;;19.30;51.20;;;;;;5051720;28;20021;-75
2023/09/13 06:10:00;;;;;;;8.63;3.78;;;19.30;51.20;;;;;;5050952;28;20077;-77
2023/09/13 06:12:27;;;;;;;6.88;3.92;;;19.30;53.70;;;;;;5050799;28;20079;-78
2023/09/13 06:14:57;;;;;;;7.25;3.95;;;19.30;53.30;;;;;;5034217;28;20032;-79
2023/09/13 06:17:24;;;;;;;6.32;3.80;;;19.30;54.00;;;;;;5050435;28;20159;-79
2023/09/13 06:19:51;;;;;;;15.85;4.53;;;19.20;53.50;;;;;;5048243;28;20029;-75
2023/09/13 06:22:19;;;;;;;7.05;4.00;;;19.20;54.00;;;;;;5038297;28;20154;-75
2023/09/13 06:24:46;;;;;;;3.95;2.92;;;19.20;52.90;;;;;;5049859;28;20021;-74
2023/09/13 06:27:13;;;;;;;5.53;2.92;;;19.20;52.50;;;;;;5039048;28;20516;-74
2023/09/13 06:29:41;;;;;;;6.50;3.20;;;19.20;50.90;;;;;;5034775;28;20040;-75
2023/09/13 06:32:09;;;;;;;5.38;3.30;;;19.20;51.90;;;;;;5050907;28;20021;-74
2023/09/13 06:34:36;;;;;;;4.68;3.05;;;19.20;51.70;;;;;;5031913;28;20491;-74
2023/09/13 06:37:04;;;;;;;8.38;3.72;;;19.10;52.20;;;;;;5039670;28;20118;-72
2023/09/13 06:39:32;;;;;;;8.25;3.28;;;19.10;52.00;;;;;;5032966;28;20025;-73
2023/09/13 06:41:59;;;;;;;6.90;3.58;;;19.10;52.00;;;;;;5036017;28;20029;-74
2023/09/13 06:44:27;;;;;;;9.45;3.80;;;19.10;52.20;;;;;;5050886;28;20036;-74
2023/09/13 06:46:54;;;;;;;4.38;3.58;;;19.00;51.60;;;;;;5050667;28;20578;-76
2023/09/13 06:49:21;;;;;;;4.57;3.30;;;19.00;52.00;;;;;;5033004;28;20110;-76
2023/09/13 06:51:49;;;;;;;6.50;2.92;;;19.00;52.30;;;;;;5049602;28;20025;-76
2023/09/13 06:54:16;;;;;;;5.70;3.03;;;19.00;50.80;;;;;;5029591;28;20388;-77
2023/09/13 06:56:43;;;;;;;7.90;3.10;;;18.90;51.60;;;;;;5030738;28;20064;-77
2023/09/13 06:59:11;;;;;;;8.23;3.45;;;18.90;51.70;;;;;;5028921;28;20036;-77
2023/09/13 07:01:38;;;;;;;6.25;3.47;;;18.90;52.10;;;;;;5032335;28;20462;-74
2023/09/13 07:04:05;;;;;;;9.35;4.53;;;18.90;53.50;;;;;;5048098;28;20219;-75
2023/09/13 07:06:33;;;;;;;6.95;4.30;;;18.90;57.40;;;;;;5050773;28;20055;-78
2023/09/13 07:09:00;;;;;;;8.15;4.10;;;18.80;58.60;;;;;;5050647;28;20441;-78
2023/09/13 07:11:28;;;;;;;12.48;4.40;;;18.80;58.90;;;;;;5049581;28;20761;-78
2023/09/13 07:13:56;;;;;;;9.52;4.40;;;18.70;59.30;;;;;;5049758;28;20047;-77
2023/09/13 07:16:23;;;;;;;10.13;5.35;;;18.70;59.30;;;;;;5032745;28;20416;-76
2023/09/13 07:18:50;;;;;;;10.35;4.93;;;18.70;59.80;;;;;;5047640;28;20095;-75
2023/09/13 07:21:18;;;;;;;8.75;4.20;;;18.50;60.30;;;;;;5050464;28;20021;-72
2023/09/13 07:23:48;;;;;;;7.93;4.47;;;18.50;60.60;;;;;;5047756;28;20099;-72
2023/09/13 07:26:15;;;;;;;10.45;4.18;;;18.50;60.50;;;;;;5036420;28;20460;-73
2023/09/13 07:28:43;;;;;;;8.15;4.30;;;18.40;59.40;;;;;;5050056;28;20063;-73
2023/09/13 07:31:10;;;;;;;10.30;4.13;;;18.40;59.80;;;;;;5050222;28;20466;-74
2023/09/13 07:33:38;;;;;;;6.30;3.95;;;18.40;59.70;;;;;;5048661;28;20040;-74
2023/09/13 07:36:05;;;;;;;7.75;4.10;;;18.30;60.00;;;;;;5050398;28;20482;-73
2023/09/13 07:38:33;;;;;;;9.98;4.10;;;18.30;60.00;;;;;;5048769;28;20398;-74
2023/09/13 07:41:00;;;;;;;13.52;4.80;;;18.30;60.30;;;;;;5048030;28;20029;-73
2023/09/13 07:43:28;;;;;;;13.88;4.30;;;18.20;60.40;;;;;;5049823;28;20544;-73
2023/09/13 07:45:55;;;;;;;6.95;4.00;;;18.20;60.60;;;;;;5048321;28;20440;-76
2023/09/13 07:48:23;;;;;;;8.80;4.30;;;18.20;60.50;;;;;;5049693;28;20071;-76
2023/09/13 07:50:50;;;;;;;12.90;4.18;;;18.20;60.30;;;;;;5049896;28;20021;-75
2023/09/13 07:53:20;;;;;;;12.93;4.25;;;18.20;60.00;;;;;;5046374;28;20052;-77
2023/09/13 07:55:47;;;;;;;14.27;3.85;;;18.20;59.80;;;;;;5027591;28;20057;-76
2023/09/13 07:58:14;;;;;;;9.98;4.07;;;18.20;60.30;;;;;;5028316;28;20112;-78
2023/09/13 08:00:43;;;;;;;12.43;4.40;;;18.20;61.40;;;;;;5040867;28;20048;-76
2023/09/13 08:03:10;;;;;;;9.02;4.38;;;18.10;62.50;;;;;;5049090;28;20040;-78
2023/09/13 08:05:38;;;;;;;11.70;4.43;;;18.00;64.00;;;;;;5048576;28;20045;-77
2023/09/13 08:08:05;;;;;;;10.70;5.32;;;18.00;64.80;;;;;;5048296;28;20047;-76
2023/09/13 08:10:33;;;;;;;10.07;5.10;;;18.00;66.70;;;;;;5040195;28;20087;-76
2023/09/13 08:13:00;;;;;;;9.35;4.63;;;18.00;67.50;;;;;;5044083;28;20033;-76
2023/09/13 08:15:27;;;;;;;11.02;4.65;;;18.00;68.20;;;;;;5048969;28;20028;-74
2023/09/13 08:17:54;;;;;;;10.15;4.82;;;18.00;69.40;;;;;;5045443;28;20734;-78
2023/09/13 08:20:22;;;;;;;11.35;5.43;;;18.00;70.10;;;;;;5046153;28;20112;-78
2023/09/13 08:22:49;;;;;;;12.07;5.97;;;17.90;70.60;;;;;;5049135;28;20037;-78
2023/09/13 08:25:16;;;;;;;10.43;5.63;;;17.90;72.30;;;;;;5049343;28;20029;-78
2023/09/13 08:27:44;;;;;;;9.70;5.57;;;17.90;72.40;;;;;;5048570;28;20049;-79
2023/09/13 08:30:11;;;;;;;10.88;6.22;;;17.90;73.60;;;;;;5048866;28;20112;-78
2023/09/13 08:32:38;;;;;;;12.10;5.65;;;17.80;73.70;;;;;;5040247;28;20045;-78
2023/09/13 08:35:06;;;;;;;10.82;5.80;;;17.80;74.20;;;;;;5047582;28;20144;-78
2023/09/13 08:37:33;;;;;;;14.43;5.65;;;17.80;74.90;;;;;;5047432;28;20036;-79
2023/09/13 08:40:01;;;;;;;14.95;5.35;;;17.70;75.30;;;;;;5047756;28;20033;-79
2023/09/13 08:42:29;;;;;;;11.63;5.45;;;17.80;75.80;;;;;;5045782;28;20016;-77
2023/09/13 08:45:03;;;;;;;13.23;5.35;;;17.70;75.90;;;;;;5045118;28;20053;-76
2023/09/13 08:47:31;;;;;;;10.27;5.65;;;17.70;76.20;;;;;;5026309;28;20440;-76
2023/09/13 08:49:59;;;;;;;10.73;5.40;;;17.70;76.50;;;;;;5026361;28;20033;-78
2023/09/13 08:52:26;;;;;;;8.77;5.18;;;17.60;76.70;;;;;;5045908;28;20451;-76
2023/09/13 08:54:54;;;;;;;12.18;5.47;;;17.60;76.70;;;;;;5046403;28;20620;-76
2023/09/13 08:57:21;;;;;;;16.55;6.25;;;17.60;77.00;;;;;;5045956;28;20059;-75
2023/09/13 11:21:20;;;;;;;10.00;4.78;;;16.40;81.90;;;;;;5055669;28;20111;-78
2023/09/13 11:23:52;;;;;;;10.05;4.93;;;16.40;81.90;;;;;;5042227;28;20053;-78
2023/09/13 11:26:45;;;;;;;13.02;4.72;;;16.30;82.00;;;;;;5059910;28;20032;-78
2023/09/13 11:29:26;;;;;;;11.40;5.28;;;16.30;81.90;;;;;;5025166;28;20406;-78
2023/09/13 11:32:06;;;;;;;9.30;5.28;;;16.30;82.00;;;;;;5035568;28;20036;-78
2023/09/13 11:34:37;;;;;;;8.52;4.78;;;16.30;82.20;;;;;;5035993;28;20040;-78
2023/09/13 11:37:07;;;;;;;9.95;5.18;;;16.20;82.30;;;;;;5047620;28;20036;-79
2023/09/13 11:39:35;;;;;;;8.98;5.00;;;16.20;82.40;;;;;;5052195;28;20028;-77
2023/09/13 11:42:04;;;;;;;11.68;5.60;;;16.20;82.40;;;;;;5070270;28;20482;-78
2023/09/13 11:44:31;;;;;;;11.95;5.38;;;16.20;82.50;;;;;;5048818;28;20694;-78
2023/09/13 11:46:58;;;;;;;11.63;4.93;;;16.20;82.70;;;;;;5052107;28;20025;-81
2023/09/13 11:49:26;;;;;;;8.88;5.30;;;16.20;82.80;;;;;;5045940;28;20454;-80
2023/09/13 11:51:57;;;;;;;9.95;5.18;;;16.10;82.90;;;;;;5031986;28;20029;-78
2023/09/13 11:54:25;;;;;;;8.80;5.40;;;16.10;83.00;;;;;;5064921;28;20040;-79
2023/09/13 11:56:55;;;;;;;12.00;5.13;;;16.10;83.00;;;;;;5052319;28;20474;-80
2023/09/13 11:59:25;;;;;;;;;;;16.00;83.10;;;;;;5066989;28;20036;-77
2023/09/13 12:01:52;;;;;;;8.88;4.85;;;16.00;83.20;;;;;;5051533;28;19912;-78
2023/09/13 12:04:22;;;;;;;10.73;5.15;;;16.00;83.30;;;;;;5067518;28;20391;-77
2023/09/13 12:06:50;;;;;;;9.38;5.03;;;15.90;83.30;;;;;;5052119;28;20502;-80
2023/09/13 12:09:18;;;;;;;9.68;5.22;;;15.90;83.40;;;;;;5066533;28;20122;-77
2023/09/13 12:11:50;;;;;;;10.63;5.55;;;15.90;83.40;;;;;;5067891;28;20090;-81
2023/09/13 12:14:22;;;;;;;11.45;5.68;;;15.90;83.40;;;;;;5048856;28;20479;-73
2023/09/13 12:16:52;;;;;;;10.13;5.22;;;15.90;83.50;;;;;;5030863;28;20124;-78
2023/09/13 12:19:19;;;;;;;12.70;5.18;;;15.90;83.50;;;;;;5031185;28;20048;-73
2023/09/13 12:21:47;;;;;;;10.82;5.28;;;15.80;83.40;;;;;;5050605;28;20040;-76
2023/09/13 12:24:21;;;;;;;11.02;5.72;;;15.80;83.30;;;;;;5047372;28;20044;-76
2023/09/13 12:26:52;;;;;;;11.70;6.03;;;15.80;83.10;;;;;;5051719;28;20123;-77
2023/09/13 12:29:23;;;;;;;11.68;5.22;;;15.80;82.80;;;;;;5068373;28;20044;-78
2023/09/13 12:31:51;;;;;;;11.15;5.13;;;15.70;82.90;;;;;;5068316;28;20060;-79
2023/09/13 12:34:18;;;;;;;8.35;5.03;;;15.70;82.80;;;;;;5050892;28;20684;-78
2023/09/13 12:36:45;;;;;;;11.00;5.50;;;15.70;82.70;;;;;;5050968;28;20028;-74
2023/09/13 12:39:16;;;;;;;11.07;5.60;;;15.70;82.60;;;;;;5045888;28;20761;-75
2023/09/13 12:41:43;;;;;;;8.73;5.45;;;15.70;82.80;;;;;;5048945;28;20410;-75
2023/09/13 12:44:11;;;;;;;10.27;5.50;;;15.70;82.90;;;;;;5068676;28;20044;-77
2023/09/13 12:46:40;;;;;;;12.40;5.63;;;15.70;82.80;;;;;;5067866;28;20024;-76
2023/09/13 12:49:07;;;;;;;12.85;6.10;;;15.70;82.70;;;;;;5066549;28;20072;-73
2023/09/13 12:51:36;;;;;;;11.35;5.57;;;15.70;82.60;;;;;;5067153;28;20399;-75
2023/09/13 12:54:05;;;;;;;15.95;6.93;;;15.70;82.50;;;;;;5046308;28;20755;-77
2023/09/13 12:56:33;;;;;;;11.75;6.32;;;15.60;82.70;;;;;;5047785;28;20450;-78
2023/09/13 12:59:00;;;;;;;9.70;5.55;;;15.60;82.90;;;;;;5041959;28;20045;-78
2023/09/13 13:01:32;;;;;;;11.77;6.07;;;15.50;83.30;;;;;;5041117;28;20392;-78
2023/09/13 13:04:08;;;;;;;14.48;6.72;;;15.50;83.30;;;;;;5061207;28;20087;-78
2023/09/13 13:07:02;;;;;;;10.45;6.13;;;15.50;83.30;;;;;;5063630;28;20029;-78
2023/09/13 13:09:29;;;;;;;13.00;5.70;;;15.40;83.40;;;;;;5047589;28;20026;-79
2023/09/13 13:11:57;;;;;;;14.38;6.85;;;15.40;83.60;;;;;;5065800;28;20063;-79
2023/09/13 13:14:26;;;;;;;11.63;6.32;;;15.40;84.00;;;;;;5049548;28;20090;-76
2023/09/13 13:16:54;;;;;;;12.70;6.40;;;15.30;84.00;;;;;;5067466;28;20027;-76
2023/09/13 13:19:33;;;;;;;12.90;6.18;;;15.40;84.30;;;;;;5050511;28;20044;-77
2023/09/13 13:22:00;;;;;;;13.55;6.50;;;15.30;84.20;;;;;;5054614;28;20044;-77
2023/09/13 13:24:27;;;;;;;16.73;6.43;;;15.30;84.00;;;;;;5052550;28;20052;-77
2023/09/13 13:26:54;;;;;;;11.82;6.45;;;15.30;83.90;;;;;;5070037;28;20043;-76
2023/09/13 13:29:22;;;;;;;13.27;7.07;;;15.20;83.90;;;;;;5050032;28;20052;-76
2023/09/13 13:31:49;;;;;;;11.68;6.47;;;15.20;84.10;;;;;;5055558;22;20595;-70
2023/09/13 13:34:17;;;;;;;9.90;6.40;;;15.20;84.20;;;;;;5031563;28;20026;-70
2023/09/13 13:36:44;;;;;;;11.98;6.20;;;15.20;84.30;;;;;;5031396;28;20041;-69
2023/09/13 13:39:14;;;;;;;12.18;6.40;;;15.20;84.40;;;;;;5046197;28;20047;-70
2023/09/13 13:41:42;;;;;;;12.68;6.60;;;15.20;84.40;;;;;;5020640;28;20038;-70
2023/09/13 13:44:15;;;;;;;12.23;6.10;;;15.20;84.70;;;;;;5012355;28;20053;-70
2023/09/13 13:46:48;;;;;;;15.10;6.60;;;15.20;85.00;;;;;;5011037;28;20030;-72
2023/09/13 13:49:17;;;;;;;14.27;5.93;;;15.20;85.60;;;;;;5014150;28;20092;-69
2023/09/13 13:51:51;;;;;;;11.48;6.13;;;15.10;85.20;;;;;;5013793;28;20045;-69
2023/09/13 13:54:18;;;;;;;14.93;7.13;;;15.10;85.50;;;;;;5013700;28;20489;-72
2023/09/13 13:56:46;;;;;;;13.00;6.45;;;15.10;85.80;;;;;;5015185;28;20046;-71
2023/09/13 13:59:14;;;;;;;10.85;6.50;;;15.10;85.90;;;;;;4997176;28;20038;-72
2023/09/13 14:01:41;;;;;;;13.05;6.88;;;15.00;85.60;;;;;;5009934;28;20392;-72
2023/09/13 14:04:08;;;;;;;10.00;6.22;;;15.00;85.70;;;;;;5029963;28;20045;-71
2023/09/13 14:06:35;;;;;;;11.52;6.85;;;14.90;85.70;;;;;;5014619;28;20037;-72
2023/09/13 14:09:05;;;;;;;10.35;6.53;;;15.00;86.10;;;;;;5014845;28;20030;-72
2023/09/13 14:11:33;;;;;;;12.35;6.72;;;14.90;86.40;;;;;;5015104;28;20105;-71
2023/09/13 14:14:00;;;;;;;12.70;6.47;;;14.80;86.60;;;;;;5028833;28;20037;-70
2023/09/13 14:16:27;;;;;;;14.77;6.65;;;14.80;86.60;;;;;;5012819;28;20082;-70
2023/09/13 14:18:55;;;;;;;11.82;6.07;;;14.80;86.50;;;;;;5029692;28;20543;-70
2023/09/13 14:21:22;;;;;;;12.20;6.35;;;14.80;86.20;;;;;;5014812;28;20042;-70
2023/09/13 14:23:49;;;;;;;15.43;6.65;;;14.80;86.00;;;;;;5014774;28;20491;-70
2023/09/13 14:26:16;;;;;;;11.48;6.13;;;14.80;86.00;;;;;;5013654;28;20060;-71
2023/09/13 14:28:44;;;;;;;10.45;5.80;;;14.70;86.10;;;;;;5014828;28;20070;-69
2023/09/13 16:00:08;;;;;;;13.40;8.18;;;14.00;86.40;;;;;;5010681;28;20053;-70
2023/09/13 16:02:35;;;;;;;15.38;8.18;;;14.00;86.10;;;;;;5012253;28;20073;-70
2023/09/13 16:05:03;;;;;;;18.65;8.13;;;14.00;86.20;;;;;;5012658;28;20041;-70
2023/09/13 16:07:34;;;;;;;16.58;9.07;;;14.00;86.10;;;;;;5017415;28;20112;-70
2023/09/13 16:10:10;;;;;;;16.17;8.85;;;14.00;86.00;;;;;;5030545;28;20038;-70
2023/09/13 16:12:41;;;;;;;19.60;9.40;;;14.00;85.90;;;;;;5032438;28;20030;-70
2023/09/13 16:15:09;;;;;;;19.23;9.13;;;13.90;86.00;;;;;;5015716;28;20033;-70
2023/09/13 16:17:36;;;;;;;15.15;9.13;;;13.80;86.20;;;;;;5018919;28;20030;-70
2023/09/13 16:20:03;;;;;;;19.88;11.20;;;13.80;86.50;;;;;;4995231;28;20049;-69
2023/09/13 16:22:31;;;;;;;24.83;14.73;;;13.80;86.30;;;;;;5003072;28;20030;-69
2023/09/13 16:25:03;;;;;;;27.73;17.08;;;13.70;86.10;;;;;;4992155;28;20126;-69
2023/09/13 16:27:33;;;;;;;41.90;23.60;;;13.70;86.10;;;;;;4992012;28;20077;-69
2023/09/13 16:30:02;;;;;;;53.05;29.65;;;13.70;86.00;;;;;;4991219;28;20049;-70
2023/09/13 16:32:29;;;;;;;62.30;39.70;;;13.70;85.70;;;;;;4992742;28;20481;-69
2023/09/13 16:34:56;;;;;;;65.75;41.63;;;13.60;85.50;;;;;;4983691;28;20117;-70